createdAt,value
2022-09-20T00:01:41.330Z,102372.56
2022-09-20T00:04:08.465Z,102374.44
2022-09-20T00:06:35.816Z,102365.53
2022-09-20T00:09:03.502Z,102350.78
2022-09-20T00:11:32.631Z,102361.31
2022-09-20T00:14:01.444Z,102373.31
2022-09-20T00:16:31.770Z,102366.38
2022-09-20T00:19:00.594Z,102362.19
2022-09-20T00:21:29.345Z,102365.53
2022-09-20T00:23:59.404Z,102361.69
2022-09-20T00:26:27.661Z,102366.94
2022-09-20T00:28:55.110Z,102366.25
2022-09-20T00:31:22.971Z,102357.75
2022-09-20T00:34:08.481Z,102336.41
2022-09-20T00:36:35.047Z,102341.44
2022-09-20T00:39:02.878Z,102355.22
2022-09-20T00:41:31.677Z,102365.06
2022-09-20T00:43:59.106Z,102355.34
2022-09-20T00:46:37.798Z,102349.28
2022-09-20T00:49:15.033Z,102358.34
2022-09-20T00:51:46.323Z,102354.50
2022-09-20T00:54:18.190Z,102355.06
2022-09-20T00:56:46.762Z,102349.19
2022-09-20T00:59:25.582Z,102376.16
2022-09-20T01:01:57.407Z,102361.72
2022-09-20T01:04:27.501Z,102359.91
2022-09-20T01:06:57.839Z,102373.03
2022-09-20T01:09:24.320Z,102365.91
2022-09-20T01:11:52.072Z,102362.47
2022-09-20T01:14:19.745Z,102357.34
2022-09-20T01:16:46.365Z,102353.03
2022-09-20T01:19:33.083Z,102359.13
2022-09-20T01:22:04.005Z,102356.63
2022-09-20T01:24:33.452Z,102367.03
2022-09-20T01:27:35.683Z,102353.28
2022-09-20T01:30:08.628Z,102359.22
2022-09-20T01:32:47.512Z,102361.97
2022-09-20T01:35:17.189Z,102357.72
2022-09-20T01:38:11.017Z,102361.88
2022-09-20T01:40:56.525Z,102357.50
2022-09-20T01:43:52.645Z,102344.44
2022-09-20T01:46:19.148Z,102365.41
2022-09-20T01:48:45.850Z,102359.13
2022-09-20T01:51:31.907Z,102352.19
2022-09-20T01:54:09.804Z,102360.31
2022-09-20T01:56:55.244Z,102363.19
2022-09-20T01:59:46.718Z,102355.34
2022-09-20T02:02:36.182Z,102357.72
2022-09-20T02:05:24.076Z,102357.72
2022-09-20T02:08:15.956Z,102363.81
2022-09-20T02:11:07.028Z,102367.34
2022-09-20T02:13:41.469Z,102346.75
2022-09-20T02:16:48.224Z,102366.09
2022-09-20T02:19:32.925Z,102367.81
2022-09-20T02:22:22.632Z,102366.88
2022-09-20T02:25:14.257Z,102370.25
2022-09-20T02:28:17.364Z,102358.28
2022-09-20T02:31:16.806Z,102353.81
2022-09-20T02:33:56.161Z,102348.66
2022-09-20T02:36:58.154Z,102352.13
2022-09-20T02:39:36.763Z,102353.06
2022-09-20T02:42:18.236Z,102353.75
2022-09-20T02:45:30.875Z,102351.03
2022-09-20T02:48:03.652Z,102350.31
2022-09-20T02:50:59.438Z,102358.22
2022-09-20T02:53:45.786Z,102361.66
2022-09-20T02:56:15.249Z,102366.09
2022-09-20T02:58:56.945Z,102361.66
2022-09-20T03:02:00.790Z,102358.13
2022-09-20T03:04:53.845Z,102348.78
2022-09-20T03:07:25.869Z,102353.81
2022-09-20T03:10:11.047Z,102362.91
2022-09-20T03:13:00.935Z,102346.56
2022-09-20T03:15:40.591Z,102347.66
2022-09-20T03:18:46.094Z,102370.53
2022-09-20T03:21:31.180Z,102361.16
2022-09-20T03:24:35.345Z,102355.13
2022-09-20T03:27:17.344Z,102362.34
2022-09-20T03:30:10.163Z,102365.06
2022-09-20T03:32:39.537Z,102364.47
2022-09-20T03:35:26.827Z,102364.56
2022-09-20T03:38:10.751Z,102375.06
2022-09-20T03:41:05.253Z,102367.22
2022-09-20T03:43:58.598Z,102363.06
2022-09-20T03:46:29.566Z,102364.72
2022-09-20T03:49:20.739Z,102362.97
2022-09-20T03:52:32.570Z,102359.41
2022-09-20T03:55:22.746Z,102351.81
2022-09-20T03:58:12.464Z,102363.13
2022-09-20T04:00:45.616Z,102365.94
2022-09-20T04:03:58.748Z,102361.63
2022-09-20T04:07:02.768Z,102364.13
2022-09-20T04:09:37.742Z,102363.19
2022-09-20T04:12:20.964Z,102363.19
2022-09-20T04:15:02.996Z,102368.59
2022-09-20T04:17:32.524Z,102368.50
2022-09-20T04:20:07.053Z,102367.88
2022-09-20T04:22:33.690Z,102370.75
2022-09-20T04:25:12.908Z,102359.50
2022-09-20T04:27:45.305Z,102365.66
2022-09-20T04:30:19.756Z,102369.28
2022-09-20T04:32:52.404Z,102372.84
2022-09-20T04:36:05.692Z,102366.75
2022-09-20T04:38:33.915Z,102361.69
2022-09-20T04:41:12.889Z,102372.28
2022-09-20T04:43:53.728Z,102368.19
2022-09-20T04:46:56.265Z,102369.75
2022-09-20T04:49:53.329Z,102375.16
2022-09-20T04:52:29.105Z,102379.72
2022-09-20T04:55:27.129Z,102381.63
2022-09-20T04:58:24.337Z,102386.03
2022-09-20T05:01:19.895Z,102385.19
2022-09-20T05:04:08.173Z,102392.34
2022-09-20T05:07:04.343Z,102399.53
2022-09-20T05:10:11.205Z,102393.34
2022-09-20T05:12:54.617Z,102388.94
2022-09-20T05:15:39.429Z,102392.59
2022-09-20T05:18:20.973Z,102395.94
2022-09-20T05:21:09.324Z,102386.19
2022-09-20T05:23:55.445Z,102396.59
2022-09-20T05:26:58.233Z,102393.78
2022-09-20T05:29:49.038Z,102399.88
2022-09-20T05:32:29.174Z,102399.66
2022-09-20T05:35:06.731Z,102399.66
2022-09-20T05:38:03.927Z,102402.16
2022-09-20T05:40:49.239Z,102393.50
2022-09-20T05:43:38.216Z,102391.88
2022-09-20T05:46:27.934Z,102405.81
2022-09-20T05:49:12.169Z,102406.03
2022-09-20T05:52:07.903Z,102404.25
2022-09-20T05:55:01.289Z,102401.81
2022-09-20T05:58:04.976Z,102393.00
2022-09-20T06:00:42.302Z,102411.94
2022-09-20T06:03:35.698Z,102419.69
2022-09-20T06:06:38.193Z,102421.16
2022-09-20T06:09:42.312Z,102413.84
2022-09-20T06:12:26.271Z,102418.84
2022-09-20T06:15:22.581Z,102425.09
2022-09-20T06:18:20.487Z,102424.38
2022-09-20T06:20:50.896Z,102431.47
2022-09-20T06:23:18.340Z,102417.41
2022-09-20T06:26:00.662Z,102431.19
2022-09-20T06:28:32.344Z,102423.84
2022-09-20T06:30:58.967Z,102432.38
2022-09-20T06:33:28.249Z,102419.09
2022-09-20T06:36:22.073Z,102431.25
2022-09-20T06:39:41.718Z,102441.34
2022-09-20T06:42:10.143Z,102434.97
2022-09-20T06:44:41.134Z,102446.91
2022-09-20T06:47:10.742Z,102444.41
2022-09-20T06:49:37.230Z,102440.53
2022-09-20T06:52:07.844Z,102435.22
2022-09-20T06:54:34.734Z,102458.66
2022-09-20T06:57:04.722Z,102442.19
2022-09-20T06:59:31.888Z,102463.97
2022-09-20T07:01:58.563Z,102473.44
2022-09-20T07:04:26.909Z,102461.94
2022-09-20T07:07:08.631Z,102468.50
2022-09-20T07:09:37.455Z,102464.78
2022-09-20T07:12:04.054Z,102464.00
2022-09-20T07:14:31.121Z,102453.81
2022-09-20T07:16:57.597Z,102453.25
2022-09-20T07:19:26.415Z,102447.81
2022-09-20T07:21:54.029Z,102435.50
2022-09-20T07:24:20.494Z,102437.75
2022-09-20T07:27:03.568Z,102447.44
2022-09-20T07:29:30.304Z,102441.94
2022-09-20T07:31:57.244Z,102453.13
2022-09-20T07:34:24.251Z,102455.53
2022-09-20T07:36:51.240Z,102444.78
2022-09-20T07:39:18.096Z,102454.13
2022-09-20T07:41:48.585Z,102451.38
2022-09-20T07:44:21.990Z,102455.69
2022-09-20T07:46:49.521Z,102459.88
2022-09-20T07:49:16.083Z,102454.97
2022-09-20T07:51:42.636Z,102456.91
2022-09-20T07:54:09.420Z,102453.09
2022-09-20T07:56:36.334Z,102463.78
2022-09-20T07:59:02.934Z,102463.13
2022-09-20T08:01:29.890Z,102469.75
2022-09-20T08:03:57.388Z,102486.63
2022-09-20T08:06:24.316Z,102485.94
2022-09-20T08:08:51.740Z,102483.63
2022-09-20T08:11:27.764Z,102506.09
2022-09-20T08:14:11.349Z,102505.59
2022-09-20T08:16:47.116Z,102511.97
2022-09-20T08:19:21.900Z,102521.13
2022-09-20T08:21:50.037Z,102512.81
2022-09-20T08:24:17.158Z,102509.69
2022-09-20T08:26:44.039Z,102507.72
2022-09-20T08:29:11.631Z,102515.63
2022-09-20T08:31:42.167Z,102489.78
2022-09-20T08:34:10.297Z,102526.44
2022-09-20T08:36:46.258Z,102520.09
2022-09-20T08:42:19.959Z,102523.53
2022-09-20T08:44:59.520Z,102533.50
2022-09-20T08:47:36.689Z,102535.38
2022-09-20T08:50:10.351Z,102537.63
2022-09-20T08:52:40.104Z,102530.75
2022-09-20T08:55:37.647Z,102543.50
2022-09-20T08:58:08.538Z,102532.81
2022-09-20T09:00:37.276Z,102536.91
2022-09-20T09:03:12.043Z,102541.28
2022-09-20T09:05:45.499Z,102545.09
2022-09-20T09:08:16.569Z,102543.63
2022-09-20T09:10:52.611Z,102539.28
2022-09-20T09:13:25.921Z,102512.38
2022-09-20T09:15:59.580Z,102534.53
2022-09-20T09:18:36.313Z,102477.25
2022-09-20T09:21:04.914Z,102520.94
2022-09-20T09:23:50.288Z,102544.50
2022-09-20T09:26:21.129Z,102548.41
2022-09-20T09:29:14.903Z,102536.31
2022-09-20T09:31:41.749Z,102539.84
2022-09-20T09:34:31.279Z,102539.56
2022-09-20T09:36:58.398Z,102537.09
2022-09-20T09:39:30.466Z,102537.59
2022-09-20T09:42:01.124Z,102534.88
2022-09-20T09:44:32.722Z,102533.53
2022-09-20T09:46:59.947Z,102525.19
2022-09-20T09:49:34.259Z,102529.69
2022-09-20T09:52:03.528Z,102527.81
2022-09-20T09:54:47.075Z,102525.03
2022-09-20T09:57:22.410Z,102535.38
2022-09-20T10:00:20.978Z,102529.50
2022-09-20T10:03:07.784Z,102543.19
2022-09-20T10:05:54.134Z,102533.78
2022-09-20T10:08:39.952Z,102527.97
2022-09-20T10:11:32.748Z,102536.97
2022-09-20T10:14:20.671Z,102541.47
2022-09-20T10:17:16.665Z,102528.13
2022-09-20T10:20:08.793Z,102527.56
2022-09-20T10:23:21.425Z,102529.16
2022-09-20T10:25:41.446Z,102525.66
2022-09-20T10:28:48.540Z,102524.81
2022-09-20T10:31:39.251Z,102525.56
2022-09-20T10:34:22.765Z,102530.03
2022-09-20T10:36:55.747Z,102531.72
2022-09-20T10:39:29.379Z,102535.28
2022-09-20T10:42:40.713Z,102530.63
2022-09-20T10:45:17.694Z,102534.44
2022-09-20T10:48:19.380Z,102538.72
2022-09-20T10:50:58.073Z,102533.28
2022-09-20T10:53:33.793Z,102534.00
2022-09-20T10:56:09.665Z,102511.03
2022-09-20T10:59:14.478Z,102535.53
2022-09-20T11:02:19.679Z,102533.25
2022-09-20T11:05:16.943Z,102529.16
2022-09-20T11:07:54.778Z,102529.03
2022-09-20T11:10:25.441Z,102530.66
2022-09-20T11:12:55.433Z,102537.84
2022-09-20T11:15:32.397Z,102527.38
2022-09-20T11:18:23.446Z,102537.41
2022-09-20T11:21:02.130Z,102530.31
2022-09-20T11:24:00.794Z,102532.34
2022-09-20T11:26:52.038Z,102521.22
2022-09-20T11:29:27.574Z,102528.47
2022-09-20T11:32:00.726Z,102524.34
2022-09-20T11:34:36.446Z,102510.31
2022-09-20T11:37:03.232Z,102516.34
2022-09-20T11:39:54.522Z,102535.19
2022-09-20T11:42:24.255Z,102540.91
2022-09-20T11:44:51.368Z,102510.06
2022-09-20T11:47:49.737Z,102525.50
2022-09-20T11:50:34.777Z,102535.97
2022-09-20T11:53:36.668Z,102534.06
2022-09-20T11:56:11.067Z,102529.31
2022-09-20T11:59:05.750Z,102535.09
2022-09-20T12:01:39.096Z,102517.97
2022-09-20T12:04:32.412Z,102542.69
2022-09-20T12:07:18.102Z,102538.69
2022-09-20T12:10:01.102Z,102537.56
2022-09-20T12:12:44.017Z,102518.56
2022-09-20T12:15:23.858Z,102525.00
2022-09-20T12:17:51.211Z,102530.03
2022-09-20T12:20:33.015Z,102525.63
2022-09-20T12:23:36.995Z,102533.50
2022-09-20T12:26:06.518Z,102518.56
2022-09-20T12:28:44.489Z,102523.34
2022-09-20T12:31:26.139Z,102522.13
2022-09-20T12:34:10.885Z,102521.41
2022-09-20T12:36:37.438Z,102527.94
2022-09-20T12:39:22.393Z,102525.56
2022-09-20T12:41:49.894Z,102533.31
2022-09-20T12:44:35.353Z,102525.28
2022-09-20T12:47:17.295Z,102528.41
2022-09-20T12:50:05.511Z,102530.72
2022-09-20T12:52:50.339Z,102524.72
2022-09-20T12:55:29.896Z,102529.44
2022-09-20T12:58:01.394Z,102518.50
2022-09-20T13:00:50.335Z,102524.78
2022-09-20T13:03:43.996Z,102524.97
2022-09-20T13:06:19.354Z,102516.00
2022-09-20T13:09:01.147Z,102520.34
2022-09-20T13:11:33.566Z,102519.19
2022-09-20T13:14:07.086Z,102516.81
2022-09-20T13:16:49.822Z,102516.81
2022-09-20T13:19:20.343Z,102512.19
2022-09-20T13:21:56.412Z,102519.28
2022-09-20T13:24:27.604Z,102526.25
2022-09-20T13:26:59.449Z,102513.25
2022-09-20T13:29:33.078Z,102518.88
2022-09-20T13:32:35.858Z,102521.25
2022-09-20T13:35:23.981Z,102514.91
2022-09-20T13:37:56.022Z,102512.19
2022-09-20T13:40:33.592Z,102505.03
2022-09-20T13:43:23.011Z,102515.00
2022-09-20T13:45:56.167Z,102506.16
2022-09-20T13:48:30.341Z,102510.16
2022-09-20T13:50:57.437Z,102505.78
2022-09-20T13:53:40.982Z,102500.59
2022-09-20T13:56:20.191Z,102521.25
2022-09-20T13:58:48.224Z,102509.94
2022-09-20T14:01:29.209Z,102527.47
2022-09-20T14:04:05.259Z,102518.19
2022-09-20T14:06:32.405Z,102515.59
2022-09-20T14:09:02.114Z,102504.91
2022-09-20T14:11:33.776Z,102519.91
2022-09-20T14:14:03.114Z,102509.81
2022-09-20T14:16:34.759Z,102518.88
2022-09-20T14:19:03.104Z,102527.13
2022-09-20T14:21:32.771Z,102509.63
2022-09-20T14:24:03.121Z,102512.69
2022-09-20T14:26:37.545Z,102513.84
2022-09-20T14:29:43.147Z,102522.06
2022-09-20T14:32:36.131Z,102516.28
2022-09-20T14:35:08.278Z,102509.09
2022-09-20T14:37:49.851Z,102523.16
2022-09-20T14:40:26.904Z,102528.13
2022-09-20T14:43:05.596Z,102521.78
2022-09-20T14:45:41.178Z,102524.09
2022-09-20T14:48:11.641Z,102526.41
2022-09-20T14:50:46.446Z,102518.47
2022-09-20T14:53:18.744Z,102517.47
2022-09-20T14:56:04.391Z,102524.94
2022-09-20T14:58:35.474Z,102518.25
2022-09-20T15:01:07.175Z,102515.19
2022-09-20T15:03:41.425Z,102531.44
2022-09-20T15:06:14.262Z,102516.91
2022-09-20T15:08:46.146Z,102520.34
2022-09-20T15:11:19.363Z,102515.50
2022-09-20T15:13:46.004Z,102517.53
2022-09-20T15:16:21.159Z,102517.34
2022-09-20T15:18:47.969Z,102521.84
2022-09-20T15:21:14.409Z,102513.00
2022-09-20T15:23:41.173Z,102523.22
2022-09-20T15:26:15.032Z,102515.53
2022-09-20T15:28:41.498Z,102506.03
2022-09-20T15:31:09.480Z,102515.09
2022-09-20T15:33:36.059Z,102502.91
2022-09-20T15:36:03.214Z,102505.16
2022-09-20T15:38:30.429Z,102486.31
2022-09-20T15:41:00.206Z,102477.75
2022-09-20T15:43:27.969Z,102516.47
2022-09-20T15:45:57.024Z,102508.53
2022-09-20T15:48:26.118Z,102496.31
2022-09-20T15:51:13.319Z,102505.88
2022-09-20T15:53:45.483Z,102504.91
2022-09-20T15:56:23.958Z,102506.03
2022-09-20T15:58:52.188Z,102510.56
2022-09-20T16:01:19.563Z,102498.91
2022-09-20T16:03:47.157Z,102518.09
2022-09-20T16:06:13.858Z,102513.19
2022-09-20T16:08:42.477Z,102525.19
2022-09-20T16:11:12.818Z,102518.88
2022-09-20T16:13:39.639Z,102526.38
2022-09-20T16:16:08.604Z,102535.72
2022-09-20T16:18:54.978Z,102529.81
2022-09-20T16:21:22.241Z,102520.31
2022-09-20T16:23:52.281Z,102532.19
2022-09-20T16:26:21.163Z,102523.47
2022-09-20T16:28:49.092Z,102524.66
2022-09-20T16:31:34.887Z,102531.09
2022-09-20T16:34:03.702Z,102528.75
2022-09-20T16:36:31.248Z,102534.84
2022-09-20T16:38:58.642Z,102541.81
2022-09-20T16:41:26.998Z,102501.34
2022-09-20T16:43:53.715Z,102528.56
2022-09-20T16:46:27.819Z,102527.50
2022-09-20T16:48:55.691Z,102528.78
2022-09-20T16:51:26.815Z,102542.72
2022-09-20T16:53:55.777Z,102538.09
2022-09-20T16:56:24.551Z,102528.53
2022-09-20T16:58:51.466Z,102550.44
2022-09-20T17:01:21.089Z,102552.81
2022-09-20T17:03:47.671Z,102547.72
2022-09-20T17:06:16.801Z,102560.25
2022-09-20T17:08:45.013Z,102554.34
2022-09-20T17:11:17.148Z,102562.75
2022-09-20T17:13:45.389Z,102568.84
2022-09-20T17:16:14.385Z,102559.78
2022-09-20T17:18:43.134Z,102560.00
2022-09-20T17:21:16.567Z,102558.88
2022-09-20T17:23:50.626Z,102565.59
2022-09-20T17:26:26.418Z,102557.03
2022-09-20T17:28:56.439Z,102570.72
2022-09-20T17:31:32.069Z,102530.03
2022-09-20T17:34:04.159Z,102496.00
2022-09-20T17:36:33.288Z,102566.16
2022-09-20T17:39:08.355Z,102554.88
2022-09-20T17:41:36.655Z,102549.28
2022-09-20T17:44:12.317Z,102562.56
2022-09-20T17:46:47.152Z,102531.19
2022-09-20T17:49:21.894Z,102575.06
2022-09-20T17:51:53.958Z,102569.31
2022-09-20T17:54:22.021Z,102578.09
2022-09-20T17:56:50.571Z,102590.50
2022-09-20T17:59:20.143Z,102592.41
2022-09-20T18:01:49.367Z,102572.38
2022-09-20T18:04:16.211Z,102596.94
2022-09-20T18:06:47.829Z,102594.56
2022-09-20T18:09:19.590Z,102574.81
2022-09-20T18:11:51.616Z,102604.84
2022-09-20T18:14:20.566Z,102613.72
2022-09-20T18:16:47.738Z,102607.88
2022-09-20T18:19:16.837Z,102569.53
2022-09-20T18:21:43.814Z,102611.25
2022-09-20T18:24:14.170Z,102589.97
2022-09-20T18:26:41.012Z,102619.56
2022-09-20T18:29:12.214Z,102616.66
2022-09-20T18:31:55.653Z,102613.38
2022-09-20T18:34:24.257Z,102629.50
2022-09-20T18:36:53.746Z,102624.50
2022-09-20T18:39:25.397Z,102598.16
2022-09-20T18:41:53.414Z,102594.91
2022-09-20T18:44:21.399Z,102628.75
2022-09-20T18:46:51.219Z,102624.88
2022-09-20T18:49:17.830Z,102607.13
2022-09-20T18:51:48.422Z,102606.72
2022-09-20T18:54:15.037Z,102628.81
2022-09-20T18:56:43.524Z,102595.88
2022-09-20T18:59:23.074Z,102599.50
2022-09-20T19:02:08.304Z,102629.50
2022-09-20T19:04:52.047Z,102636.56
2022-09-20T19:07:28.035Z,102634.75
2022-09-20T19:10:06.757Z,102635.59
2022-09-20T19:12:59.088Z,102639.53
2022-09-20T19:15:52.388Z,102649.03
2022-09-20T19:18:35.634Z,102624.16
2022-09-20T19:21:32.518Z,102650.72
2022-09-20T19:24:25.378Z,102663.38
2022-09-20T19:26:55.263Z,102665.25
2022-09-20T19:29:27.727Z,102652.25
2022-09-20T19:31:57.029Z,102672.72
2022-09-20T19:34:28.948Z,102675.31
2022-09-20T19:37:18.885Z,102674.78
2022-09-20T19:40:29.902Z,102661.03
2022-09-20T19:43:19.389Z,102674.88
2022-09-20T19:46:11.584Z,102682.88
2022-09-20T19:48:40.553Z,102684.75
2022-09-20T19:51:12.153Z,102678.97
2022-09-20T19:53:39.248Z,102667.16
2022-09-20T19:56:15.162Z,102690.41
2022-09-20T19:58:43.279Z,102693.00
2022-09-20T20:01:10.186Z,102700.06
2022-09-20T20:03:37.155Z,102677.75
2022-09-20T20:06:16.505Z,102698.81
2022-09-20T20:08:55.917Z,102697.47
2022-09-20T20:11:50.201Z,102699.09
2022-09-20T20:14:24.351Z,102707.78
2022-09-20T20:17:14.811Z,102692.31
2022-09-20T20:20:05.865Z,102707.03
2022-09-20T20:22:32.310Z,102710.53
2022-09-20T20:24:59.224Z,102689.34
2022-09-20T20:27:28.462Z,102708.03
2022-09-20T20:29:55.602Z,102700.28
2022-09-20T20:32:22.458Z,102715.09
2022-09-20T20:34:49.449Z,102716.03
2022-09-20T20:37:16.079Z,102713.78
2022-09-20T20:39:42.609Z,102703.38
2022-09-20T20:42:12.941Z,102702.81
2022-09-20T20:44:39.986Z,102715.09
2022-09-20T20:47:06.742Z,102707.34
2022-09-20T20:49:33.270Z,102708.31
2022-09-20T20:52:04.246Z,102720.59
2022-09-20T20:54:31.898Z,102719.91
2022-09-20T20:56:59.305Z,102725.25
2022-09-20T20:59:26.144Z,102731.09
2022-09-20T21:01:53.306Z,102728.59
2022-09-20T21:04:20.113Z,102722.66
2022-09-20T21:06:46.604Z,102729.63
2022-09-20T21:09:13.478Z,102721.69
2022-09-20T21:11:44.368Z,102741.84
2022-09-20T21:14:12.518Z,102748.03
2022-09-20T21:16:45.009Z,102746.38
2022-09-20T21:19:14.922Z,102747.41
2022-09-20T21:21:43.304Z,102747.47
2022-09-20T21:24:12.421Z,102745.13
2022-09-20T21:26:40.290Z,102745.59
2022-09-20T21:29:10.566Z,102751.09
2022-09-20T21:31:39.480Z,102750.28
2022-09-20T21:34:07.539Z,102750.28
2022-09-20T21:36:36.681Z,102755.56
2022-09-20T21:39:04.332Z,102733.00
2022-09-20T21:41:33.368Z,102752.03
2022-09-20T21:44:02.446Z,102752.25
2022-09-20T21:46:37.207Z,102761.28
2022-09-20T21:49:05.509Z,102751.69
2022-09-20T21:51:33.384Z,102713.25
2022-09-20T21:54:01.827Z,102751.69
2022-09-20T21:56:36.295Z,102760.47
2022-09-20T21:59:04.397Z,102762.22
2022-09-20T22:01:34.465Z,102770.09
2022-09-20T22:04:04.902Z,102773.72
2022-09-20T22:06:34.565Z,102769.31
2022-09-20T22:09:04.058Z,102764.00
2022-09-20T22:11:33.295Z,102757.81
2022-09-20T22:14:00.110Z,102758.94
2022-09-20T22:16:29.560Z,102761.44
2022-09-20T22:18:56.801Z,102771.91
2022-09-20T22:21:25.612Z,102761.44
2022-09-20T22:23:57.685Z,102761.72
2022-09-20T22:26:26.736Z,102762.50
2022-09-20T22:28:53.434Z,102740.28
2022-09-20T22:31:25.285Z,102761.81
2022-09-20T22:33:54.776Z,102763.69
2022-09-20T22:36:26.918Z,102767.47
2022-09-20T22:38:54.142Z,102757.94
2022-09-20T22:41:21.094Z,102764.28
2022-09-20T22:43:47.668Z,102754.81
2022-09-20T22:46:17.044Z,102761.78
2022-09-20T22:48:44.331Z,102765.47
2022-09-20T22:51:12.453Z,102755.59
2022-09-20T22:53:39.100Z,102751.53
2022-09-20T22:56:13.464Z,102760.13
2022-09-20T22:58:42.253Z,102753.44
2022-09-20T23:01:14.191Z,102769.84
2022-09-20T23:03:44.622Z,102763.13
2022-09-20T23:06:13.901Z,102765.91
2022-09-20T23:08:40.469Z,102760.94
2022-09-20T23:11:07.308Z,102759.16
2022-09-20T23:13:34.067Z,102772.34
2022-09-20T23:16:00.672Z,102742.06
2022-09-20T23:18:27.320Z,102761.66
2022-09-20T23:21:03.915Z,102767.81
2022-09-20T23:23:30.605Z,102769.34
2022-09-20T23:26:07.889Z,102762.38
2022-09-20T23:28:36.733Z,102776.41
2022-09-20T23:31:06.033Z,102771.47
2022-09-20T23:33:33.108Z,102773.34
2022-09-20T23:36:00.404Z,102762.84
2022-09-20T23:38:27.254Z,102709.50
2022-09-20T23:40:54.316Z,102732.59
2022-09-20T23:43:21.009Z,102766.22
2022-09-20T23:45:47.602Z,102762.47
2022-09-20T23:48:14.131Z,102766.22
2022-09-20T23:50:43.045Z,102782.03
2022-09-20T23:53:09.665Z,102734.56
2022-09-20T23:55:36.177Z,102770.75
2022-09-20T23:58:02.888Z,102767.00
